sensor_id;sensor_type;location;lat;lon;timestamp;P1;durP1;ratioP1;P2;durP2;ratioP2
72095;SDS011;59968;51.084;16.748;2023-01-15T00:13:48;1.20;;;0.50;;
72095;SDS011;59968;51.084;16.748;2023-01-15T00:16:21;1.60;;;0.60;;
72095;SDS011;59968;51.084;16.748;2023-01-15T00:18:51;1.70;;;0.70;;
72095;SDS011;59968;51.084;16.748;2023-01-15T00:21:22;1.40;;;0.60;;
72095;SDS011;59968;51.084;16.748;2023-01-15T00:23:52;1.60;;;1.10;;
72095;SDS011;59968;51.084;16.748;2023-01-15T00:26:40;1.80;;;0.60;;
72095;SDS011;59968;51.084;16.748;2023-01-15T00:29:27;2.30;;;0.80;;
72095;SDS011;59968;51.084;16.748;2023-01-15T00:32:00;1.90;;;0.70;;
72095;SDS011;59968;51.084;16.748;2023-01-15T00:34:32;1.50;;;0.80;;
72095;SDS011;59968;51.084;16.748;2023-01-15T00:37:03;3.40;;;1.10;;
72095;SDS011;59968;51.084;16.748;2023-01-15T00:39:38;3.60;;;1.10;;
72095;SDS011;59968;51.084;16.748;2023-01-15T00:42:10;2.40;;;0.90;;
72095;SDS011;59968;51.084;16.748;2023-01-15T00:44:42;2.00;;;0.90;;
72095;SDS011;59968;51.084;16.748;2023-01-15T00:47:13;2.50;;;1.20;;
72095;SDS011;59968;51.084;16.748;2023-01-15T00:49:42;3.80;;;1.40;;
72095;SDS011;59968;51.084;16.748;2023-01-15T00:52:11;2.50;;;1.00;;
72095;SDS011;59968;51.084;16.748;2023-01-15T00:54:41;1.10;;;0.60;;
72095;SDS011;59968;51.084;16.748;2023-01-15T00:57:10;1.30;;;1.00;;
72095;SDS011;59968;51.084;16.748;2023-01-15T00:59:39;3.40;;;0.90;;
72095;SDS011;59968;51.084;16.748;2023-01-15T01:02:07;1.40;;;0.70;;
72095;SDS011;59968;51.084;16.748;2023-01-15T01:04:35;2.20;;;0.90;;
72095;SDS011;59968;51.084;16.748;2023-01-15T01:07:05;2.10;;;0.60;;
72095;SDS011;59968;51.084;16.748;2023-01-15T01:09:34;2.00;;;0.80;;
72095;SDS011;59968;51.084;16.748;2023-01-15T01:12:02;2.10;;;0.70;;
72095;SDS011;59968;51.084;16.748;2023-01-15T01:14:32;1.60;;;1.00;;
72095;SDS011;59968;51.084;16.748;2023-01-15T01:17:00;1.60;;;1.00;;
72095;SDS011;59968;51.084;16.748;2023-01-15T01:19:28;1.50;;;0.60;;
72095;SDS011;59968;51.084;16.748;2023-01-15T01:21:56;1.40;;;0.80;;
72095;SDS011;59968;51.084;16.748;2023-01-15T01:24:25;1.50;;;0.70;;
72095;SDS011;59968;51.084;16.748;2023-01-15T01:26:54;1.20;;;0.80;;
72095;SDS011;59968;51.084;16.748;2023-01-15T01:29:22;1.30;;;0.80;;
72095;SDS011;59968;51.084;16.748;2023-01-15T01:31:51;1.00;;;0.60;;
72095;SDS011;59968;51.084;16.748;2023-01-15T01:34:19;1.50;;;0.60;;
72095;SDS011;59968;51.084;16.748;2023-01-15T01:36:48;1.00;;;0.80;;
72095;SDS011;59968;51.084;16.748;2023-01-15T01:39:17;1.90;;;0.70;;
72095;SDS011;59968;51.084;16.748;2023-01-15T01:41:46;1.40;;;0.70;;
72095;SDS011;59968;51.084;16.748;2023-01-15T01:47:01;2.20;;;0.90;;
72095;SDS011;59968;51.084;16.748;2023-01-15T01:49:34;1.00;;;0.80;;
72095;SDS011;59968;51.084;16.748;2023-01-15T01:52:08;1.20;;;0.80;;
72095;SDS011;59968;51.084;16.748;2023-01-15T01:54:40;1.30;;;0.80;;
72095;SDS011;59968;51.084;16.748;2023-01-15T01:57:13;2.20;;;0.80;;
72095;SDS011;59968;51.084;16.748;2023-01-15T01:59:43;1.20;;;0.80;;
72095;SDS011;59968;51.084;16.748;2023-01-15T02:02:12;2.00;;;0.60;;
72095;SDS011;59968;51.084;16.748;2023-01-15T02:04:43;1.70;;;1.00;;
72095;SDS011;59968;51.084;16.748;2023-01-15T02:07:12;1.90;;;0.70;;
72095;SDS011;59968;51.084;16.748;2023-01-15T02:09:41;1.10;;;0.50;;
72095;SDS011;59968;51.084;16.748;2023-01-15T02:12:21;1.20;;;0.60;;
72095;SDS011;59968;51.084;16.748;2023-01-15T02:17:48;1.60;;;0.80;;
72095;SDS011;59968;51.084;16.748;2023-01-15T02:28:45;1.10;;;0.70;;
72095;SDS011;59968;51.084;16.748;2023-01-15T02:31:20;1.80;;;0.70;;
72095;SDS011;59968;51.084;16.748;2023-01-15T02:34:05;2.10;;;0.80;;
72095;SDS011;59968;51.084;16.748;2023-01-15T02:36:43;2.80;;;0.80;;
72095;SDS011;59968;51.084;16.748;2023-01-15T02:39:22;1.60;;;0.60;;
72095;SDS011;59968;51.084;16.748;2023-01-15T02:41:54;2.00;;;1.00;;
72095;SDS011;59968;51.084;16.748;2023-01-15T02:44:30;2.30;;;0.80;;
72095;SDS011;59968;51.084;16.748;2023-01-15T02:47:02;0.90;;;0.60;;
72095;SDS011;59968;51.084;16.748;2023-01-15T02:49:33;1.10;;;0.80;;
72095;SDS011;59968;51.084;16.748;2023-01-15T02:54:44;1.20;;;0.70;;
72095;SDS011;59968;51.084;16.748;2023-01-15T02:57:15;1.50;;;1.00;;
72095;SDS011;59968;51.084;16.748;2023-01-15T02:59:52;1.70;;;0.70;;
72095;SDS011;59968;51.084;16.748;2023-01-15T03:02:24;1.90;;;0.80;;
72095;SDS011;59968;51.084;16.748;2023-01-15T03:05:02;0.60;;;0.60;;
72095;SDS011;59968;51.084;16.748;2023-01-15T03:07:36;1.80;;;1.00;;
72095;SDS011;59968;51.084;16.748;2023-01-15T03:10:13;2.20;;;1.00;;
72095;SDS011;59968;51.084;16.748;2023-01-15T03:12:56;1.80;;;0.80;;
72095;SDS011;59968;51.084;16.748;2023-01-15T03:15:43;1.80;;;0.90;;
72095;SDS011;59968;51.084;16.748;2023-01-15T03:18:34;1.50;;;0.60;;
72095;SDS011;59968;51.084;16.748;2023-01-15T03:21:08;1.00;;;0.80;;
72095;SDS011;59968;51.084;16.748;2023-01-15T03:23:41;1.40;;;0.80;;
72095;SDS011;59968;51.084;16.748;2023-01-15T03:26:14;0.60;;;0.60;;
72095;SDS011;59968;51.084;16.748;2023-01-15T03:28:43;1.30;;;1.10;;
72095;SDS011;59968;51.084;16.748;2023-01-15T03:31:14;1.10;;;0.70;;
72095;SDS011;59968;51.084;16.748;2023-01-15T03:33:43;1.30;;;0.70;;
72095;SDS011;59968;51.084;16.748;2023-01-15T03:36:15;0.70;;;0.50;;
72095;SDS011;59968;51.084;16.748;2023-01-15T03:38:47;0.60;;;0.50;;
72095;SDS011;59968;51.084;16.748;2023-01-15T03:47:31;0.70;;;0.60;;
72095;SDS011;59968;51.084;16.748;2023-01-15T03:55:20;0.60;;;0.60;;
72095;SDS011;59968;51.084;16.748;2023-01-15T03:58:10;1.90;;;0.80;;
72095;SDS011;59968;51.084;16.748;2023-01-15T04:00:48;1.50;;;0.80;;
72095;SDS011;59968;51.084;16.748;2023-01-15T04:03:21;1.30;;;0.70;;
72095;SDS011;59968;51.084;16.748;2023-01-15T04:05:51;1.20;;;0.70;;
72095;SDS011;59968;51.084;16.748;2023-01-15T04:08:23;1.00;;;0.70;;
72095;SDS011;59968;51.084;16.748;2023-01-15T04:10:59;1.10;;;0.70;;
72095;SDS011;59968;51.084;16.748;2023-01-15T04:13:31;0.90;;;0.70;;
72095;SDS011;59968;51.084;16.748;2023-01-15T04:16:01;1.50;;;1.00;;
72095;SDS011;59968;51.084;16.748;2023-01-15T04:18:30;1.10;;;0.80;;
72095;SDS011;59968;51.084;16.748;2023-01-15T04:20:59;0.80;;;0.60;;
72095;SDS011;59968;51.084;16.748;2023-01-15T04:23:28;1.30;;;0.70;;
72095;SDS011;59968;51.084;16.748;2023-01-15T04:25:56;1.20;;;0.60;;
72095;SDS011;59968;51.084;16.748;2023-01-15T04:28:24;1.50;;;0.40;;
72095;SDS011;59968;51.084;16.748;2023-01-15T04:30:55;0.80;;;0.70;;
72095;SDS011;59968;51.084;16.748;2023-01-15T04:33:24;0.90;;;0.60;;
72095;SDS011;59968;51.084;16.748;2023-01-15T04:35:53;0.90;;;0.80;;
72095;SDS011;59968;51.084;16.748;2023-01-15T04:38:21;1.30;;;0.80;;
72095;SDS011;59968;51.084;16.748;2023-01-15T04:40:49;1.80;;;0.90;;
72095;SDS011;59968;51.084;16.748;2023-01-15T04:43:56;1.70;;;1.00;;
72095;SDS011;59968;51.084;16.748;2023-01-15T04:49:07;4.00;;;1.40;;
72095;SDS011;59968;51.084;16.748;2023-01-15T04:51:38;1.80;;;0.90;;
72095;SDS011;59968;51.084;16.748;2023-01-15T04:54:07;2.90;;;1.10;;
72095;SDS011;59968;51.084;16.748;2023-01-15T04:56:38;1.90;;;0.80;;
72095;SDS011;59968;51.084;16.748;2023-01-15T04:59:09;3.80;;;1.20;;
72095;SDS011;59968;51.084;16.748;2023-01-15T05:01:38;2.60;;;1.30;;
72095;SDS011;59968;51.084;16.748;2023-01-15T05:04:13;2.50;;;0.80;;
72095;SDS011;59968;51.084;16.748;2023-01-15T05:06:41;1.80;;;0.90;;
72095;SDS011;59968;51.084;16.748;2023-01-15T05:09:10;1.50;;;0.80;;
72095;SDS011;59968;51.084;16.748;2023-01-15T05:11:38;1.90;;;0.90;;
72095;SDS011;59968;51.084;16.748;2023-01-15T05:14:07;2.10;;;0.90;;
72095;SDS011;59968;51.084;16.748;2023-01-15T05:16:36;1.10;;;0.80;;
72095;SDS011;59968;51.084;16.748;2023-01-15T05:19:05;1.80;;;0.80;;
72095;SDS011;59968;51.084;16.748;2023-01-15T05:21:39;2.10;;;0.80;;
72095;SDS011;59968;51.084;16.748;2023-01-15T05:24:11;1.20;;;0.80;;
72095;SDS011;59968;51.084;16.748;2023-01-15T05:26:42;1.30;;;0.70;;
72095;SDS011;59968;51.084;16.748;2023-01-15T05:29:10;1.80;;;0.90;;
72095;SDS011;59968;51.084;16.748;2023-01-15T05:31:40;1.00;;;0.60;;
72095;SDS011;59968;51.084;16.748;2023-01-15T05:34:24;1.40;;;0.80;;
72095;SDS011;59968;51.084;16.748;2023-01-15T05:36:53;2.10;;;0.90;;
72095;SDS011;59968;51.084;16.748;2023-01-15T05:39:21;1.40;;;0.80;;
72095;SDS011;59968;51.084;16.748;2023-01-15T05:41:49;3.20;;;1.10;;
72095;SDS011;59968;51.084;16.748;2023-01-15T05:44:36;3.10;;;0.70;;
72095;SDS011;59968;51.084;16.748;2023-01-15T05:47:04;1.70;;;0.80;;
72095;SDS011;59968;51.084;16.748;2023-01-15T05:49:34;1.30;;;0.80;;
72095;SDS011;59968;51.084;16.748;2023-01-15T05:52:03;1.60;;;0.60;;
72095;SDS011;59968;51.084;16.748;2023-01-15T05:54:32;1.50;;;0.60;;
72095;SDS011;59968;51.084;16.748;2023-01-15T05:57:02;2.30;;;0.80;;
72095;SDS011;59968;51.084;16.748;2023-01-15T05:59:31;1.60;;;0.80;;
72095;SDS011;59968;51.084;16.748;2023-01-15T06:01:59;1.40;;;0.80;;
72095;SDS011;59968;51.084;16.748;2023-01-15T06:04:28;1.30;;;0.80;;
72095;SDS011;59968;51.084;16.748;2023-01-15T06:06:56;1.40;;;0.60;;
72095;SDS011;59968;51.084;16.748;2023-01-15T06:09:26;1.60;;;0.60;;
72095;SDS011;59968;51.084;16.748;2023-01-15T06:11:56;1.40;;;0.70;;
72095;SDS011;59968;51.084;16.748;2023-01-15T06:14:24;1.70;;;0.80;;
72095;SDS011;59968;51.084;16.748;2023-01-15T06:16:53;1.20;;;0.60;;
72095;SDS011;59968;51.084;16.748;2023-01-15T06:19:21;1.20;;;0.80;;
72095;SDS011;59968;51.084;16.748;2023-01-15T06:21:49;0.80;;;0.80;;
72095;SDS011;59968;51.084;16.748;2023-01-15T06:24:18;0.90;;;0.60;;
72095;SDS011;59968;51.084;16.748;2023-01-15T06:26:47;1.30;;;0.60;;
72095;SDS011;59968;51.084;16.748;2023-01-15T06:29:15;1.00;;;0.80;;
72095;SDS011;59968;51.084;16.748;2023-01-15T06:31:45;2.30;;;1.10;;
72095;SDS011;59968;51.084;16.748;2023-01-15T06:34:15;1.50;;;0.70;;
72095;SDS011;59968;51.084;16.748;2023-01-15T06:36:43;1.50;;;0.80;;
72095;SDS011;59968;51.084;16.748;2023-01-15T06:39:12;1.40;;;0.70;;
72095;SDS011;59968;51.084;16.748;2023-01-15T06:41:40;2.10;;;1.10;;
72095;SDS011;59968;51.084;16.748;2023-01-15T06:44:26;1.80;;;0.80;;
72095;SDS011;59968;51.084;16.748;2023-01-15T06:47:14;1.20;;;0.80;;
72095;SDS011;59968;51.084;16.748;2023-01-15T06:49:57;2.00;;;1.00;;
72095;SDS011;59968;51.084;16.748;2023-01-15T06:52:26;1.70;;;0.70;;
72095;SDS011;59968;51.084;16.748;2023-01-15T06:54:55;3.50;;;1.20;;
72095;SDS011;59968;51.084;16.748;2023-01-15T06:57:23;2.90;;;1.30;;
72095;SDS011;59968;51.084;16.748;2023-01-15T06:59:52;1.90;;;0.90;;
72095;SDS011;59968;51.084;16.748;2023-01-15T07:02:21;1.40;;;0.60;;
72095;SDS011;59968;51.084;16.748;2023-01-15T07:04:50;2.40;;;1.10;;
72095;SDS011;59968;51.084;16.748;2023-01-15T07:07:20;1.30;;;0.70;;
72095;SDS011;59968;51.084;16.748;2023-01-15T07:09:49;1.50;;;1.10;;
72095;SDS011;59968;51.084;16.748;2023-01-15T07:12:20;1.80;;;0.90;;
72095;SDS011;59968;51.084;16.748;2023-01-15T07:14:48;1.00;;;0.70;;
72095;SDS011;59968;51.084;16.748;2023-01-15T07:17:17;3.20;;;1.30;;
72095;SDS011;59968;51.084;16.748;2023-01-15T07:19:46;1.50;;;0.80;;
72095;SDS011;59968;51.084;16.748;2023-01-15T07:22:14;1.30;;;0.90;;
72095;SDS011;59968;51.084;16.748;2023-01-15T07:24:43;2.60;;;0.90;;
72095;SDS011;59968;51.084;16.748;2023-01-15T07:27:11;2.90;;;1.10;;
72095;SDS011;59968;51.084;16.748;2023-01-15T07:29:39;2.40;;;0.90;;
72095;SDS011;59968;51.084;16.748;2023-01-15T07:32:08;1.20;;;0.60;;
72095;SDS011;59968;51.084;16.748;2023-01-15T07:34:38;2.50;;;0.70;;
72095;SDS011;59968;51.084;16.748;2023-01-15T07:37:07;1.70;;;0.70;;
72095;SDS011;59968;51.084;16.748;2023-01-15T07:39:35;1.40;;;0.90;;
72095;SDS011;59968;51.084;16.748;2023-01-15T07:42:08;1.70;;;0.60;;
72095;SDS011;59968;51.084;16.748;2023-01-15T07:44:56;1.60;;;1.00;;
72095;SDS011;59968;51.084;16.748;2023-01-15T07:47:45;4.60;;;1.00;;
72095;SDS011;59968;51.084;16.748;2023-01-15T07:50:32;1.60;;;0.90;;
72095;SDS011;59968;51.084;16.748;2023-01-15T07:53:02;1.60;;;1.00;;
72095;SDS011;59968;51.084;16.748;2023-01-15T07:55:33;2.50;;;0.90;;
72095;SDS011;59968;51.084;16.748;2023-01-15T07:58:08;1.40;;;0.80;;
72095;SDS011;59968;51.084;16.748;2023-01-15T08:00:36;1.70;;;0.90;;
72095;SDS011;59968;51.084;16.748;2023-01-15T08:03:08;1.30;;;0.80;;
72095;SDS011;59968;51.084;16.748;2023-01-15T08:05:38;1.70;;;0.90;;
72095;SDS011;59968;51.084;16.748;2023-01-15T08:08:12;1.60;;;1.00;;
72095;SDS011;59968;51.084;16.748;2023-01-15T08:10:46;1.20;;;0.70;;
72095;SDS011;59968;51.084;16.748;2023-01-15T08:13:33;1.50;;;1.00;;
72095;SDS011;59968;51.084;16.748;2023-01-15T08:16:24;1.80;;;0.90;;
72095;SDS011;59968;51.084;16.748;2023-01-15T08:18:52;2.50;;;1.00;;
72095;SDS011;59968;51.084;16.748;2023-01-15T08:21:22;1.70;;;0.80;;
72095;SDS011;59968;51.084;16.748;2023-01-15T08:23:52;2.20;;;0.80;;
72095;SDS011;59968;51.084;16.748;2023-01-15T08:26:21;2.00;;;1.10;;
72095;SDS011;59968;51.084;16.748;2023-01-15T08:28:50;1.70;;;1.00;;
72095;SDS011;59968;51.084;16.748;2023-01-15T08:31:19;1.70;;;0.80;;
72095;SDS011;59968;51.084;16.748;2023-01-15T08:33:49;1.60;;;0.80;;
72095;SDS011;59968;51.084;16.748;2023-01-15T08:36:18;1.60;;;1.00;;
72095;SDS011;59968;51.084;16.748;2023-01-15T08:38:48;1.60;;;1.10;;
72095;SDS011;59968;51.084;16.748;2023-01-15T08:41:17;1.40;;;0.90;;
72095;SDS011;59968;51.084;16.748;2023-01-15T08:43:47;2.00;;;0.90;;
72095;SDS011;59968;51.084;16.748;2023-01-15T08:46:16;2.10;;;0.80;;
72095;SDS011;59968;51.084;16.748;2023-01-15T08:48:47;1.40;;;0.70;;
72095;SDS011;59968;51.084;16.748;2023-01-15T08:51:16;2.40;;;1.20;;
72095;SDS011;59968;51.084;16.748;2023-01-15T08:53:45;2.00;;;1.20;;
72095;SDS011;59968;51.084;16.748;2023-01-15T08:56:15;1.80;;;1.10;;
72095;SDS011;59968;51.084;16.748;2023-01-15T08:58:48;1.60;;;0.80;;
72095;SDS011;59968;51.084;16.748;2023-01-15T09:01:17;1.70;;;0.80;;
72095;SDS011;59968;51.084;16.748;2023-01-15T09:03:47;1.60;;;0.80;;
72095;SDS011;59968;51.084;16.748;2023-01-15T09:06:15;3.10;;;1.30;;
72095;SDS011;59968;51.084;16.748;2023-01-15T09:08:44;2.30;;;1.10;;
72095;SDS011;59968;51.084;16.748;2023-01-15T09:11:13;1.80;;;1.00;;
72095;SDS011;59968;51.084;16.748;2023-01-15T09:13:42;2.40;;;1.50;;
72095;SDS011;59968;51.084;16.748;2023-01-15T09:16:11;2.80;;;1.00;;
72095;SDS011;59968;51.084;16.748;2023-01-15T09:18:40;2.40;;;1.30;;
72095;SDS011;59968;51.084;16.748;2023-01-15T09:21:08;1.90;;;0.90;;
72095;SDS011;59968;51.084;16.748;2023-01-15T09:23:38;2.70;;;1.50;;
72095;SDS011;59968;51.084;16.748;2023-01-15T09:26:19;2.50;;;1.50;;
72095;SDS011;59968;51.084;16.748;2023-01-15T09:28:53;1.80;;;1.10;;
72095;SDS011;59968;51.084;16.748;2023-01-15T09:31:23;2.40;;;1.30;;
72095;SDS011;59968;51.084;16.748;2023-01-15T09:34:09;2.30;;;1.10;;
72095;SDS011;59968;51.084;16.748;2023-01-15T09:36:45;2.90;;;1.50;;
72095;SDS011;59968;51.084;16.748;2023-01-15T09:39:33;3.30;;;1.60;;
72095;SDS011;59968;51.084;16.748;2023-01-15T09:42:24;3.90;;;1.40;;
72095;SDS011;59968;51.084;16.748;2023-01-15T09:45:30;2.20;;;1.30;;
72095;SDS011;59968;51.084;16.748;2023-01-15T09:56:52;5.90;;;2.20;;
72095;SDS011;59968;51.084;16.748;2023-01-15T09:59:32;5.40;;;2.00;;
72095;SDS011;59968;51.084;16.748;2023-01-15T10:04:58;5.90;;;2.30;;
72095;SDS011;59968;51.084;16.748;2023-01-15T10:10:21;8.60;;;3.70;;
72095;SDS011;59968;51.084;16.748;2023-01-15T10:13:01;7.40;;;2.90;;
72095;SDS011;59968;51.084;16.748;2023-01-15T10:15:40;8.10;;;2.80;;
72095;SDS011;59968;51.084;16.748;2023-01-15T10:18:19;6.90;;;2.50;;
72095;SDS011;59968;51.084;16.748;2023-01-15T10:21:09;5.50;;;2.10;;
72095;SDS011;59968;51.084;16.748;2023-01-15T10:24:17;6.80;;;2.60;;
72095;SDS011;59968;51.084;16.748;2023-01-15T10:26:56;6.80;;;2.70;;
72095;SDS011;59968;51.084;16.748;2023-01-15T10:29:36;5.30;;;2.10;;
72095;SDS011;59968;51.084;16.748;2023-01-15T10:35:03;4.00;;;1.70;;
72095;SDS011;59968;51.084;16.748;2023-01-15T10:45:57;8.00;;;3.20;;
72095;SDS011;59968;51.084;16.748;2023-01-15T10:48:41;6.90;;;2.50;;
72095;SDS011;59968;51.084;16.748;2023-01-15T10:51:46;4.70;;;1.90;;
72095;SDS011;59968;51.084;16.748;2023-01-15T10:54:28;5.90;;;2.40;;
72095;SDS011;59968;51.084;16.748;2023-01-15T11:00:03;4.70;;;2.20;;
72095;SDS011;59968;51.084;16.748;2023-01-15T11:02:39;5.80;;;2.50;;
72095;SDS011;59968;51.084;16.748;2023-01-15T11:05:17;4.00;;;1.70;;
72095;SDS011;59968;51.084;16.748;2023-01-15T11:07:49;7.30;;;3.50;;
72095;SDS011;59968;51.084;16.748;2023-01-15T11:10:39;4.80;;;2.10;;
72095;SDS011;59968;51.084;16.748;2023-01-15T11:16:03;6.70;;;2.50;;
72095;SDS011;59968;51.084;16.748;2023-01-15T11:18:52;5.80;;;2.20;;
72095;SDS011;59968;51.084;16.748;2023-01-15T11:21:40;5.20;;;2.20;;
72095;SDS011;59968;51.084;16.748;2023-01-15T11:24:24;3.90;;;1.90;;
72095;SDS011;59968;51.084;16.748;2023-01-15T11:26:54;4.30;;;1.90;;
72095;SDS011;59968;51.084;16.748;2023-01-15T11:29:31;3.90;;;1.80;;
72095;SDS011;59968;51.084;16.748;2023-01-15T11:32:15;5.60;;;1.90;;
72095;SDS011;59968;51.084;16.748;2023-01-15T11:35:00;3.90;;;1.80;;
72095;SDS011;59968;51.084;16.748;2023-01-15T11:37:36;3.90;;;2.10;;
72095;SDS011;59968;51.084;16.748;2023-01-15T11:40:15;6.40;;;3.10;;
72095;SDS011;59968;51.084;16.748;2023-01-15T11:42:46;7.20;;;2.90;;
72095;SDS011;59968;51.084;16.748;2023-01-15T11:45:50;4.40;;;2.50;;
72095;SDS011;59968;51.084;16.748;2023-01-15T11:48:46;4.80;;;2.40;;
72095;SDS011;59968;51.084;16.748;2023-01-15T11:51:41;5.10;;;2.80;;
72095;SDS011;59968;51.084;16.748;2023-01-15T11:54:16;8.20;;;3.70;;
72095;SDS011;59968;51.084;16.748;2023-01-15T11:56:45;8.60;;;4.50;;
72095;SDS011;59968;51.084;16.748;2023-01-15T11:59:15;7.10;;;5.00;;
72095;SDS011;59968;51.084;16.748;2023-01-15T12:01:50;6.70;;;4.50;;
72095;SDS011;59968;51.084;16.748;2023-01-15T12:04:45;5.90;;;3.40;;
72095;SDS011;59968;51.084;16.748;2023-01-15T12:07:21;5.50;;;1.80;;
72095;SDS011;59968;51.084;16.748;2023-01-15T12:12:56;4.00;;;1.20;;
72095;SDS011;59968;51.084;16.748;2023-01-15T12:21:16;1.90;;;0.60;;
72095;SDS011;59968;51.084;16.748;2023-01-15T12:29:50;1.30;;;0.70;;
72095;SDS011;59968;51.084;16.748;2023-01-15T12:32:39;1.30;;;0.70;;
72095;SDS011;59968;51.084;16.748;2023-01-15T12:35:14;3.10;;;1.30;;
72095;SDS011;59968;51.084;16.748;2023-01-15T12:37:54;2.70;;;0.90;;
72095;SDS011;59968;51.084;16.748;2023-01-15T12:40:29;1.40;;;0.60;;
72095;SDS011;59968;51.084;16.748;2023-01-15T12:43:15;2.60;;;1.20;;
72095;SDS011;59968;51.084;16.748;2023-01-15T12:46:13;3.50;;;1.20;;
72095;SDS011;59968;51.084;16.748;2023-01-15T12:48:54;3.80;;;1.50;;
72095;SDS011;59968;51.084;16.748;2023-01-15T12:54:21;2.00;;;1.00;;
72095;SDS011;59968;51.084;16.748;2023-01-15T12:57:02;3.10;;;1.10;;
72095;SDS011;59968;51.084;16.748;2023-01-15T12:59:49;1.90;;;0.80;;
72095;SDS011;59968;51.084;16.748;2023-01-15T13:08:40;3.20;;;1.50;;
72095;SDS011;59968;51.084;16.748;2023-01-15T13:11:23;3.30;;;1.60;;
72095;SDS011;59968;51.084;16.748;2023-01-15T13:13:54;4.00;;;1.80;;
72095;SDS011;59968;51.084;16.748;2023-01-15T13:22:02;8.40;;;3.90;;
72095;SDS011;59968;51.084;16.748;2023-01-15T13:25:10;6.50;;;2.50;;
72095;SDS011;59968;51.084;16.748;2023-01-15T13:33:37;5.20;;;2.20;;
72095;SDS011;59968;51.084;16.748;2023-01-15T13:36:15;3.60;;;1.80;;
72095;SDS011;59968;51.084;16.748;2023-01-15T13:38:50;3.80;;;1.60;;
72095;SDS011;59968;51.084;16.748;2023-01-15T13:41:24;2.50;;;1.20;;
72095;SDS011;59968;51.084;16.748;2023-01-15T13:44:19;4.90;;;1.70;;
72095;SDS011;59968;51.084;16.748;2023-01-15T13:47:26;3.90;;;1.60;;
72095;SDS011;59968;51.084;16.748;2023-01-15T13:49:52;6.70;;;4.20;;
72095;SDS011;59968;51.084;16.748;2023-01-15T13:52:34;6.90;;;3.90;;
72095;SDS011;59968;51.084;16.748;2023-01-15T13:55:11;28.60;;;17.10;;
72095;SDS011;59968;51.084;16.748;2023-01-15T13:57:46;31.60;;;20.30;;
72095;SDS011;59968;51.084;16.748;2023-01-15T14:00:34;12.30;;;8.10;;
72095;SDS011;59968;51.084;16.748;2023-01-15T14:03:24;34.90;;;22.50;;
72095;SDS011;59968;51.084;16.748;2023-01-15T14:05:57;27.60;;;18.60;;
72095;SDS011;59968;51.084;16.748;2023-01-15T14:08:39;27.20;;;17.10;;
72095;SDS011;59968;51.084;16.748;2023-01-15T14:11:30;59.10;;;38.70;;
72095;SDS011;59968;51.084;16.748;2023-01-15T14:36:52;11.60;;;5.30;;
72095;SDS011;59968;51.084;16.748;2023-01-15T14:39:46;9.80;;;5.40;;
72095;SDS011;59968;51.084;16.748;2023-01-15T14:48:00;27.70;;;13.90;;
72095;SDS011;59968;51.084;16.748;2023-01-15T14:50:36;20.50;;;10.40;;
72095;SDS011;59968;51.084;16.748;2023-01-15T14:58:45;6.40;;;3.00;;
72095;SDS011;59968;51.084;16.748;2023-01-15T15:01:26;6.60;;;2.70;;
72095;SDS011;59968;51.084;16.748;2023-01-15T15:03:59;4.70;;;1.80;;
72095;SDS011;59968;51.084;16.748;2023-01-15T15:06:52;4.80;;;2.00;;
72095;SDS011;59968;51.084;16.748;2023-01-15T15:17:54;20.00;;;9.80;;
72095;SDS011;59968;51.084;16.748;2023-01-15T15:20:49;25.20;;;9.70;;
72095;SDS011;59968;51.084;16.748;2023-01-15T15:23:32;29.30;;;9.80;;
72095;SDS011;59968;51.084;16.748;2023-01-15T15:26:19;11.80;;;5.20;;
72095;SDS011;59968;51.084;16.748;2023-01-15T15:28:57;6.40;;;2.60;;
72095;SDS011;59968;51.084;16.748;2023-01-15T15:31:33;5.70;;;2.50;;
72095;SDS011;59968;51.084;16.748;2023-01-15T15:34:11;4.70;;;2.30;;
72095;SDS011;59968;51.084;16.748;2023-01-15T15:37:19;4.60;;;2.20;;
72095;SDS011;59968;51.084;16.748;2023-01-15T15:40:01;5.10;;;2.40;;
72095;SDS011;59968;51.084;16.748;2023-01-15T15:42:58;4.60;;;2.30;;
72095;SDS011;59968;51.084;16.748;2023-01-15T15:46:03;7.50;;;2.70;;
72095;SDS011;59968;51.084;16.748;2023-01-15T15:48:55;8.80;;;2.90;;
72095;SDS011;59968;51.084;16.748;2023-01-15T15:51:59;9.60;;;3.30;;
72095;SDS011;59968;51.084;16.748;2023-01-15T15:54:28;8.90;;;3.30;;
72095;SDS011;59968;51.084;16.748;2023-01-15T15:57:03;9.60;;;3.70;;
72095;SDS011;59968;51.084;16.748;2023-01-15T15:59:45;10.50;;;4.30;;
72095;SDS011;59968;51.084;16.748;2023-01-15T16:05:23;12.10;;;4.60;;
72095;SDS011;59968;51.084;16.748;2023-01-15T16:08:05;17.30;;;5.90;;
72095;SDS011;59968;51.084;16.748;2023-01-15T16:10:41;10.10;;;4.70;;
72095;SDS011;59968;51.084;16.748;2023-01-15T16:13:30;11.20;;;3.60;;
72095;SDS011;59968;51.084;16.748;2023-01-15T16:16:03;7.70;;;3.50;;
72095;SDS011;59968;51.084;16.748;2023-01-15T16:21:16;7.10;;;3.20;;
72095;SDS011;59968;51.084;16.748;2023-01-15T16:24:00;9.20;;;3.30;;
72095;SDS011;59968;51.084;16.748;2023-01-15T16:26:40;6.90;;;3.20;;
72095;SDS011;59968;51.084;16.748;2023-01-15T16:29:20;9.00;;;3.50;;
72095;SDS011;59968;51.084;16.748;2023-01-15T16:32:07;8.50;;;3.50;;
72095;SDS011;59968;51.084;16.748;2023-01-15T16:34:49;9.20;;;4.00;;
72095;SDS011;59968;51.084;16.748;2023-01-15T16:37:55;9.30;;;3.60;;
72095;SDS011;59968;51.084;16.748;2023-01-15T16:40:38;9.60;;;3.80;;
72095;SDS011;59968;51.084;16.748;2023-01-15T16:43:15;15.10;;;4.80;;
72095;SDS011;59968;51.084;16.748;2023-01-15T16:46:03;9.40;;;4.10;;
72095;SDS011;59968;51.084;16.748;2023-01-15T16:48:35;21.20;;;5.70;;
72095;SDS011;59968;51.084;16.748;2023-01-15T16:51:48;20.70;;;6.10;;
72095;SDS011;59968;51.084;16.748;2023-01-15T16:54:38;32.70;;;8.70;;
72095;SDS011;59968;51.084;16.748;2023-01-15T16:57:10;19.60;;;6.60;;
72095;SDS011;59968;51.084;16.748;2023-01-15T17:02:32;25.40;;;7.60;;
72095;SDS011;59968;51.084;16.748;2023-01-15T17:05:16;25.40;;;6.70;;
72095;SDS011;59968;51.084;16.748;2023-01-15T17:07:50;31.50;;;8.80;;
72095;SDS011;59968;51.084;16.748;2023-01-15T17:10:23;28.50;;;8.20;;
72095;SDS011;59968;51.084;16.748;2023-01-15T17:12:56;18.40;;;5.90;;
72095;SDS011;59968;51.084;16.748;2023-01-15T17:17:56;13.80;;;5.30;;
72095;SDS011;59968;51.084;16.748;2023-01-15T17:20:29;12.90;;;6.10;;
72095;SDS011;59968;51.084;16.748;2023-01-15T17:23:01;12.30;;;5.70;;
72095;SDS011;59968;51.084;16.748;2023-01-15T17:25:31;12.10;;;5.50;;
72095;SDS011;59968;51.084;16.748;2023-01-15T17:28:02;17.50;;;7.30;;
72095;SDS011;59968;51.084;16.748;2023-01-15T17:30:32;35.80;;;11.80;;
72095;SDS011;59968;51.084;16.748;2023-01-15T17:33:02;54.40;;;15.90;;
72095;SDS011;59968;51.084;16.748;2023-01-15T17:35:34;42.50;;;12.50;;
72095;SDS011;59968;51.084;16.748;2023-01-15T17:38:04;28.50;;;10.30;;
72095;SDS011;59968;51.084;16.748;2023-01-15T17:40:35;31.60;;;10.20;;
72095;SDS011;59968;51.084;16.748;2023-01-15T17:43:05;20.00;;;8.00;;
72095;SDS011;59968;51.084;16.748;2023-01-15T17:45:34;16.60;;;6.70;;
72095;SDS011;59968;51.084;16.748;2023-01-15T17:48:04;14.80;;;6.20;;
72095;SDS011;59968;51.084;16.748;2023-01-15T17:50:37;11.20;;;5.50;;
72095;SDS011;59968;51.084;16.748;2023-01-15T17:53:09;46.80;;;14.20;;
72095;SDS011;59968;51.084;16.748;2023-01-15T17:55:43;53.10;;;15.90;;
72095;SDS011;59968;51.084;16.748;2023-01-15T17:58:31;52.80;;;16.10;;
72095;SDS011;59968;51.084;16.748;2023-01-15T18:01:41;43.40;;;13.40;;
72095;SDS011;59968;51.084;16.748;2023-01-15T18:04:43;38.10;;;13.60;;